Time;durP1;ratioP1;P1;durP2;ratioP2;P2;SDS_P1;SDS_P2;PMS_P1;PMS_P2;Temp;Humidity;BMP_temperature;BMP_pressure;BME280_temperature;BME280_humidity;BME280_pressure;Samples;Min_cycle;Max_cycle;Signal;HPM_P1;HPM_P2
2022/02/19 00:00:51;;;;;;;7.10;1.47;;;;;;;8.20;56.28;98156.13;5019849;27;102695;-68
2022/02/19 00:03:20;;;;;;;4.13;1.57;;;;;;;8.21;56.46;98155.16;5016407;27;104159;-68
2022/02/19 00:05:48;;;;;;;5.93;1.40;;;;;;;8.22;56.35;98150.75;5022033;27;103354;-68
2022/02/19 00:08:16;;;;;;;9.50;1.80;;;;;;;8.07;56.07;98161.41;5025529;27;102580;-68
2022/02/19 00:10:45;;;;;;;6.33;1.70;;;;;;;8.08;55.96;98172.78;5021342;27;102685;-73
2022/02/19 00:13:13;;;;;;;6.37;1.27;;;;;;;8.08;55.76;98164.91;5022747;27;104241;-73
2022/02/19 00:15:41;;;;;;;8.50;1.80;;;;;;;8.09;55.65;98164.78;5021920;27;102939;-73
2022/02/19 00:18:11;;;;;;;4.70;1.60;;;;;;;8.06;56.03;98159.72;5024090;27;102689;-73
2022/02/19 00:20:39;;;;;;;5.30;1.57;;;;;;;8.08;56.44;98170.16;5025287;27;102631;-73
2022/02/19 00:23:07;;;;;;;6.33;1.93;;;;;;;8.06;55.73;98174.66;5022580;27;103255;-74
2022/02/19 00:25:37;;;;;;;5.43;1.83;;;;;;;8.03;55.57;98174.88;5021634;27;103258;-72
2022/02/19 00:28:06;;;;;;;6.00;1.80;;;;;;;8.02;56.09;98181.94;5021127;27;102681;-68
2022/02/19 00:30:36;;;;;;;5.30;1.60;;;;;;;7.99;55.86;98173.44;5019886;27;102679;-68
2022/02/19 00:33:04;;;;;;;7.30;2.00;;;;;;;7.99;55.90;98189.22;5017311;27;105027;-69
2022/02/19 00:35:34;;;;;;;6.60;1.50;;;;;;;8.02;55.63;98189.00;5018347;27;103825;-68
2022/02/19 00:38:02;;;;;;;6.93;2.07;;;;;;;8.03;55.70;98203.81;5019662;27;102774;-69
2022/02/19 00:40:30;;;;;;;5.17;1.80;;;;;;;8.01;55.04;98197.81;5022683;27;103554;-68
2022/02/19 00:42:58;;;;;;;6.60;1.90;;;;;;;8.00;55.13;98196.16;5017564;27;104323;-69
2022/02/19 00:45:26;;;;;;;7.90;1.93;;;;;;;7.97;54.78;98207.72;5024232;27;103160;-68
2022/02/19 00:47:54;;;;;;;8.00;1.80;;;;;;;8.02;54.37;98212.69;5022381;27;102631;-68
2022/02/19 00:50:22;;;;;;;7.07;1.90;;;;;;;8.00;54.67;98201.44;5018669;27;102739;-68
2022/02/19 00:52:55;;;;;;;3.80;1.27;;;;;;;8.08;55.23;98220.97;5019434;27;103881;-68
2022/02/19 00:55:23;;;;;;;2.17;1.10;;;;;;;8.08;55.54;98222.78;5024609;27;103376;-73
2022/02/19 00:57:52;;;;;;;5.43;1.67;;;;;;;7.96;54.76;98223.63;5019985;27;102627;-68
2022/02/19 01:00:20;;;;;;;6.93;1.70;;;;;;;7.95;54.95;98235.91;5019861;27;102727;-68
2022/02/19 01:03:01;;;;;;;4.83;1.70;;;;;;;7.90;54.58;98237.19;5014578;27;104003;-73
2022/02/19 01:05:31;;;;;;;4.50;1.67;;;;;;;7.84;54.86;98245.50;5015303;27;105922;-73
2022/02/19 01:08:00;;;;;;;6.67;1.83;;;;;;;7.88;54.99;98234.69;5022111;27;102806;-68
2022/02/19 01:10:28;;;;;;;4.50;1.70;;;;;;;7.93;54.32;98243.09;5018725;27;102773;-68
2022/02/19 01:12:59;;;;;;;6.03;2.50;;;;;;;7.95;54.99;98245.59;5019575;27;104048;-73
2022/02/19 01:15:28;;;;;;;4.63;1.53;;;;;;;7.86;54.67;98247.06;5019045;27;104333;-68
2022/02/19 01:17:56;;;;;;;6.87;1.83;;;;;;;7.91;54.14;98246.78;5023123;27;103170;-68
2022/02/19 01:20:24;;;;;;;6.30;1.40;;;;;;;7.92;54.25;98256.31;5022990;27;103878;-68
2022/02/19 01:22:52;;;;;;;5.30;1.83;;;;;;;8.03;54.69;98254.66;5019465;27;103245;-69
2022/02/19 01:25:22;;;;;;;5.30;1.90;;;;;;;7.88;53.53;98260.97;5020846;27;104122;-69
2022/02/19 01:27:53;;;;;;;7.63;1.70;;;;;;;7.94;53.30;98264.97;5019697;27;102741;-69
2022/02/19 01:30:22;;;;;;;7.00;1.80;;;;;;;7.94;53.20;98262.34;5016602;27;103233;-69
2022/02/19 01:32:55;;;;;;;5.93;2.03;;;;;;;8.00;53.26;98269.81;5022792;27;103252;-69
2022/02/19 01:35:24;;;;;;;4.90;1.60;;;;;;;7.97;53.03;98281.38;5018101;27;103934;-69
2022/02/19 01:37:52;;;;;;;4.60;1.27;;;;;;;7.94;52.68;98293.91;5024607;27;102812;-69
2022/02/19 01:40:22;;;;;;;3.50;1.40;;;;;;;7.85;52.48;98284.84;5015674;27;104128;-69
2022/02/19 01:42:50;;;;;;;4.17;1.37;;;;;;;7.84;52.28;98277.91;5014071;27;105956;-69
2022/02/19 01:45:21;;;;;;;5.20;1.33;;;;;;;7.83;51.77;98284.09;5016837;27;103171;-69
2022/02/19 01:47:50;;;;;;;5.27;1.60;;;;;;;7.86;51.97;98293.59;5021605;27;102981;-69
2022/02/19 01:50:20;;;;;;;3.47;1.23;;;;;;;7.87;51.83;98282.09;5018935;27;103954;-70
2022/02/19 01:52:49;;;;;;;6.03;1.53;;;;;;;7.88;51.71;98297.81;5016845;27;104014;-70
2022/02/19 01:55:34;;;;;;;4.47;1.53;;;;;;;7.75;50.70;98283.78;5018542;27;104095;-69
2022/02/19 01:58:17;;;;;;;3.47;1.30;;;;;;;7.78;50.85;98293.25;5019340;27;102820;-69
2022/02/19 02:01:08;;;;;;;4.73;1.50;;;;;;;7.72;51.45;98306.81;5011734;27;104094;-69
2022/02/19 02:04:05;;;;;;;2.37;1.20;;;;;;;7.77;51.35;98304.72;4971764;27;103138;-69
2022/02/19 02:06:35;;;;;;;3.17;1.20;;;;;;;7.67;50.76;98303.63;5015640;27;103233;-69
2022/02/19 02:09:05;;;;;;;3.83;1.10;;;;;;;7.76;51.35;98309.13;5017237;27;102765;-69
2022/02/19 02:11:38;;;;;;;6.70;1.37;;;;;;;7.64;50.93;98322.25;5019731;27;102710;-69
2022/02/19 02:14:10;;;;;;;7.40;1.57;;;;;;;7.63;50.42;98315.31;5014933;27;106001;-69
2022/02/19 02:16:58;;;;;;;6.63;1.80;;;;;;;7.59;51.04;98336.53;5010799;27;103193;-74
2022/02/19 02:19:27;;;;;;;6.43;1.37;;;;;;;7.61;50.91;98311.94;5019094;27;102540;-69
2022/02/19 02:22:07;;;;;;;6.47;1.50;;;;;;;7.59;51.03;98339.19;5021500;27;103977;-69
2022/02/19 02:24:36;;;;;;;4.90;1.60;;;;;;;7.64;51.39;98332.75;5020939;27;103235;-69
2022/02/19 02:27:07;;;;;;;7.93;1.60;;;;;;;7.52;51.58;98339.69;5015564;27;103214;-69
2022/02/19 02:29:41;;;;;;;3.20;1.30;;;;;;;7.62;51.93;98343.38;5019629;27;102682;-69
2022/02/19 02:32:13;;;;;;;5.87;1.63;;;;;;;7.47;51.50;98339.97;5019884;27;102755;-69
2022/02/19 02:34:49;;;;;;;5.77;1.33;;;;;;;7.55;50.84;98337.69;5022191;27;103820;-69
2022/02/19 02:37:20;;;;;;;3.37;1.40;;;;;;;7.39;51.31;98346.66;5020894;27;103261;-69
2022/02/19 02:39:48;;;;;;;5.43;1.47;;;;;;;7.42;51.49;98357.84;5022493;27;102875;-69
2022/02/19 02:42:17;;;;;;;3.73;1.50;;;;;;;7.43;51.57;98348.16;5025996;27;102733;-69
2022/02/19 02:44:45;;;;;;;5.70;1.60;;;;;;;7.43;51.59;98353.44;5024908;27;103867;-69
2022/02/19 02:47:35;;;;;;;5.73;1.40;;;;;;;7.30;51.81;98363.88;5016884;27;105090;-69
2022/02/19 02:50:06;;;;;;;6.77;1.77;;;;;;;7.34;52.28;98368.00;5024165;27;102546;-74
2022/02/19 02:52:40;;;;;;;5.00;1.60;;;;;;;7.43;52.36;98372.66;5021650;27;103644;-74
2022/02/19 02:55:12;;;;;;;6.13;1.30;;;;;;;7.28;52.24;98376.28;5021755;27;104026;-75
2022/02/19 02:57:42;;;;;;;5.27;1.47;;;;;;;7.16;52.40;98377.03;5021114;27;104228;-69
2022/02/19 03:00:13;;;;;;;7.07;1.53;;;;;;;7.32;52.27;98374.31;5020215;27;102687;-69
2022/02/19 03:02:43;;;;;;;5.77;1.53;;;;;;;7.16;52.53;98392.81;5011150;27;102741;-69
2022/02/19 03:05:13;;;;;;;4.93;2.03;;;;;;;7.15;52.51;98383.25;5018546;27;103279;-69
2022/02/19 03:07:43;;;;;;;5.47;1.40;;;;;;;7.12;52.70;98396.59;5019130;27;105361;-69
2022/02/19 03:10:16;;;;;;;5.77;1.70;;;;;;;7.17;53.16;98409.41;5020264;27;103056;-69
2022/02/19 03:12:44;;;;;;;7.13;1.63;;;;;;;7.00;52.76;98423.63;5020938;27;102678;-70
2022/02/19 03:15:18;;;;;;;3.77;1.60;;;;;;;7.04;51.82;98419.88;5021026;27;103927;-69
2022/02/19 03:17:49;;;;;;;5.00;1.50;;;;;;;7.10;52.05;98406.34;5022871;27;103309;-70
2022/02/19 03:20:20;;;;;;;4.40;1.23;;;;;;;7.01;52.32;98422.69;5019485;27;102870;-69
2022/02/19 03:22:51;;;;;;;6.40;1.60;;;;;;;7.09;52.47;98428.31;5021717;27;103860;-69
2022/02/19 03:25:21;;;;;;;4.90;1.57;;;;;;;7.06;52.55;98428.50;5024660;27;104100;-69
2022/02/19 03:27:53;;;;;;;4.00;1.37;;;;;;;6.91;52.60;98432.06;5021366;27;104404;-69
2022/02/19 03:30:27;;;;;;;6.00;1.80;;;;;;;6.93;52.36;98433.66;5019845;27;102664;-69
2022/02/19 03:32:55;;;;;;;3.97;1.47;;;;;;;6.89;52.74;98420.81;5023356;27;102603;-74
2022/02/19 03:35:25;;;;;;;4.93;1.20;;;;;;;6.88;51.80;98440.13;5019964;27;103223;-73
2022/02/19 03:37:54;;;;;;;5.70;1.47;;;;;;;6.91;51.74;98446.03;5022810;27;103293;-74
2022/02/19 03:40:45;;;;;;;6.40;1.63;;;;;;;6.94;52.21;98451.09;5021121;27;102843;-73
2022/02/19 03:43:12;;;;;;;7.97;1.70;;;;;;;6.84;52.79;98457.88;5023894;27;102682;-73
2022/02/19 03:45:43;;;;;;;3.90;1.43;;;;;;;6.77;52.06;98461.78;5024973;27;103287;-69
2022/02/19 03:48:37;;;;;;;7.67;1.40;;;;;;;6.72;52.68;98455.97;5015681;27;103182;-69
2022/02/19 03:51:06;;;;;;;5.37;1.30;;;;;;;6.77;52.48;98474.06;5023957;27;102663;-69
2022/02/19 03:53:35;;;;;;;3.93;1.30;;;;;;;6.84;52.98;98475.41;5020401;27;103737;-69
2022/02/19 03:56:04;;;;;;;5.57;1.30;;;;;;;6.68;52.82;98485.16;5020658;27;105877;-69
2022/02/19 03:58:34;;;;;;;4.87;1.27;;;;;;;6.66;53.21;98495.72;5022137;27;105806;-74
2022/02/19 04:01:05;;;;;;;4.43;1.40;;;;;;;6.61;53.15;98496.94;5019442;27;102727;-74
2022/02/19 04:03:34;;;;;;;4.10;1.27;;;;;;;6.63;53.54;98502.91;5019778;27;104006;-69
2022/02/19 04:06:04;;;;;;;5.37;1.40;;;;;;;6.55;53.41;98497.28;5017501;27;104227;-69
2022/02/19 04:08:32;;;;;;;7.90;1.70;;;;;;;6.52;52.91;98510.59;5024116;27;103277;-69
2022/02/19 04:11:02;;;;;;;6.03;1.70;;;;;;;6.48;52.80;98519.59;5023375;27;102787;-74
2022/02/19 04:13:30;;;;;;;7.07;1.73;;;;;;;6.50;53.03;98528.22;5016306;27;102714;-69
2022/02/19 04:16:11;;;;;;;5.13;1.43;;;;;;;6.45;52.71;98530.28;5017343;27;105169;-74
2022/02/19 04:18:45;;;;;;;5.00;1.30;;;;;;;6.37;52.66;98534.16;5020258;27;105564;-74
2022/02/19 04:21:16;;;;;;;6.80;1.77;;;;;;;6.31;52.98;98544.19;5028458;27;102812;-74
2022/02/19 04:23:44;;;;;;;7.13;1.77;;;;;;;6.37;53.08;98543.84;5023658;27;102920;-74
2022/02/19 04:26:15;;;;;;;6.90;1.70;;;;;;;6.44;53.59;98563.53;5020543;27;103439;-69
2022/02/19 04:28:52;;;;;;;3.30;1.13;;;;;;;6.22;53.50;98560.44;5017635;27;105417;-69
2022/02/19 04:31:27;;;;;;;4.40;1.37;;;;;;;6.20;53.68;98554.47;5022170;27;102674;-69
2022/02/19 04:34:05;;;;;;;4.77;1.90;;;;;;;6.24;53.86;98559.44;5022046;27;102638;-74
2022/02/19 04:36:35;;;;;;;4.90;1.47;;;;;;;6.17;54.47;98565.97;5022757;27;105458;-74
2022/02/19 04:39:03;;;;;;;4.80;1.50;;;;;;;6.07;54.24;98564.78;5022094;27;103613;-75
2022/02/19 04:41:33;;;;;;;4.93;1.60;;;;;;;6.07;54.66;98567.41;5019692;27;103265;-69
2022/02/19 04:44:03;;;;;;;9.37;1.83;;;;;;;6.13;54.28;98577.56;5020155;27;102558;-69
2022/02/19 04:46:32;;;;;;;5.37;1.77;;;;;;;6.11;54.31;98571.56;5021993;27;104051;-74
2022/02/19 04:49:01;;;;;;;5.13;1.33;;;;;;;5.95;54.49;98565.47;5020319;27;103277;-74
2022/02/19 04:51:30;;;;;;;4.43;1.40;;;;;;;5.99;54.69;98579.25;5019640;27;102627;-75
2022/02/19 04:53:58;;;;;;;6.83;2.10;;;;;;;6.06;54.49;98588.50;5022245;27;104324;-74
2022/02/19 04:56:27;;;;;;;5.80;1.70;;;;;;;5.98;54.74;98594.13;5019697;27;105141;-75
2022/02/19 04:58:56;;;;;;;7.83;1.60;;;;;;;5.92;54.48;98589.25;5020360;27;103190;-74
2022/02/19 05:01:25;;;;;;;5.40;1.43;;;;;;;5.99;54.57;98593.22;5022062;27;102680;-74
2022/02/19 05:04:06;;;;;;;4.37;1.50;;;;;;;5.97;54.53;98597.72;5018744;27;102791;-75
2022/02/19 05:07:04;;;;;;;5.90;1.40;;;;;;;5.90;55.00;98600.72;5011266;27;104118;-69
2022/02/19 05:09:35;;;;;;;4.30;1.47;;;;;;;5.86;55.09;98607.94;5019998;27;103898;-69
2022/02/19 05:12:08;;;;;;;7.03;1.77;;;;;;;5.76;55.06;98612.78;5019620;27;102753;-69
2022/02/19 05:14:40;;;;;;;6.27;1.50;;;;;;;5.80;55.22;98616.94;5014893;27;104032;-69
2022/02/19 05:17:31;;;;;;;7.07;1.90;;;;;;;5.79;55.54;98627.50;5012510;27;104069;-70
2022/02/19 05:20:06;;;;;;;4.87;1.63;;;;;;;5.79;55.49;98630.13;5016718;27;103003;-68
2022/02/19 05:22:40;;;;;;;8.50;1.97;;;;;;;5.72;55.55;98637.50;5016817;27;102816;-68
2022/02/19 05:25:09;;;;;;;4.53;1.87;;;;;;;5.86;55.85;98634.16;5029133;27;103745;-68
2022/02/19 05:27:37;;;;;;;4.90;1.50;;;;;;;5.90;55.65;98643.53;5018449;27;103711;-74
2022/02/19 05:30:11;;;;;;;6.50;1.70;;;;;;;5.74;55.95;98650.50;5024036;27;104283;-74
2022/02/19 05:32:52;;;;;;;7.00;2.00;;;;;;;5.65;56.29;98648.38;5019896;27;102664;-73
2022/02/19 05:35:24;;;;;;;6.00;1.63;;;;;;;5.72;56.46;98650.59;5019218;27;103628;-74
2022/02/19 05:37:53;;;;;;;7.03;1.97;;;;;;;5.64;56.52;98658.00;5014843;27;105208;-69
2022/02/19 05:40:21;;;;;;;7.57;2.40;;;;;;;5.76;56.89;98652.13;5014932;27;102971;-76
2022/02/19 05:42:50;;;;;;;7.00;1.73;;;;;;;5.75;56.92;98649.59;5013970;27;102760;-76
2022/02/19 05:45:26;;;;;;;5.23;1.50;;;;;;;5.68;56.90;98653.44;5018871;27;102665;-76
2022/02/19 05:47:58;;;;;;;7.20;1.87;;;;;;;5.53;57.16;98655.09;5014206;27;105269;-69
2022/02/19 05:50:35;;;;;;;6.03;1.80;;;;;;;5.61;57.58;98665.22;5020307;27;103048;-70
2022/02/19 05:53:12;;;;;;;7.33;1.70;;;;;;;5.55;57.21;98674.25;5017439;27;102618;-69
2022/02/19 05:55:44;;;;;;;5.30;1.80;;;;;;;5.63;57.56;98681.69;5015254;27;104081;-76
2022/02/19 05:58:14;;;;;;;5.87;1.97;;;;;;;5.68;57.00;98683.13;5016941;27;104059;-76
2022/02/19 06:01:06;;;;;;;6.90;2.23;;;;;;;5.55;57.62;98689.97;5008806;27;104191;-69
2022/02/19 06:03:34;;;;;;;8.93;2.00;;;;;;;5.60;57.63;98684.47;5014713;27;102621;-76
2022/02/19 06:06:02;;;;;;;4.47;1.80;;;;;;;5.51;57.61;98696.28;5022152;27;103778;-69
2022/02/19 06:08:33;;;;;;;8.03;1.77;;;;;;;5.64;57.86;98705.19;5022170;27;105409;-70
2022/02/19 06:11:03;;;;;;;7.60;2.10;;;;;;;5.50;57.87;98709.47;5022866;27;103204;-69
2022/02/19 06:13:51;;;;;;;7.47;1.87;;;;;;;5.43;58.10;98722.03;5020269;27;102586;-69
2022/02/19 06:16:20;;;;;;;9.83;2.50;;;;;;;5.45;58.04;98719.31;5021734;27;104052;-76
2022/02/19 06:19:01;;;;;;;7.23;2.00;;;;;;;5.32;58.35;98731.34;5021196;27;103211;-69
2022/02/19 06:21:30;;;;;;;7.63;1.90;;;;;;;5.37;58.71;98731.97;5023304;27;103192;-76
2022/02/19 06:23:59;;;;;;;7.57;2.00;;;;;;;5.28;58.95;98738.50;5020515;27;102603;-76
2022/02/19 06:26:29;;;;;;;5.30;1.70;;;;;;;5.27;59.14;98747.31;5023567;27;102672;-76
2022/02/19 06:29:18;;;;;;;5.23;1.60;;;;;;;5.16;59.16;98750.47;5020511;27;104323;-76
2022/02/19 06:31:59;;;;;;;6.10;1.70;;;;;;;5.22;59.35;98752.78;5022450;27;106031;-77
2022/02/19 06:34:27;;;;;;;6.27;1.70;;;;;;;5.28;59.58;98748.16;5018672;27;102587;-76
2022/02/19 06:36:56;;;;;;;8.77;2.00;;;;;;;5.28;59.40;98755.09;5021928;27;102680;-77
2022/02/19 06:39:28;;;;;;;4.73;1.47;;;;;;;5.38;59.79;98749.41;5023131;27;103229;-72
2022/02/19 06:41:57;;;;;;;6.93;2.23;;;;;;;5.31;59.42;98756.69;5017124;27;105406;-73
2022/02/19 06:44:49;;;;;;;4.17;1.77;;;;;;;5.28;59.27;98765.56;5021179;27;102834;-73
2022/02/19 06:47:19;;;;;;;6.50;2.20;;;;;;;5.43;59.15;98769.19;5023843;27;102824;-73
2022/02/19 06:49:47;;;;;;;7.23;1.80;;;;;;;5.34;59.72;98768.78;5020025;27;103064;-73
2022/02/19 06:52:15;;;;;;;9.73;2.33;;;;;;;5.25;59.56;98773.56;5023282;27;103200;-74
2022/02/19 06:54:47;;;;;;;8.20;1.83;;;;;;;5.28;59.30;98776.03;5024375;27;102654;-73
2022/02/19 06:57:17;;;;;;;7.37;1.97;;;;;;;5.34;59.46;98789.75;5032889;27;102700;-73
2022/02/19 06:59:45;;;;;;;10.37;2.33;;;;;;;5.31;59.44;98795.16;5031654;27;105064;-74
2022/02/19 07:02:14;;;;;;;4.40;1.40;;;;;;;5.41;59.77;98806.88;5030275;27;103984;-73
2022/02/19 07:04:46;;;;;;;5.23;1.53;;;;;;;5.30;59.35;98811.81;5027754;27;102708;-69
2022/02/19 07:07:24;;;;;;;5.93;1.80;;;;;;;5.49;59.81;98817.81;5025899;27;103831;-69
2022/02/19 07:09:54;;;;;;;5.70;1.70;;;;;;;5.49;59.54;98820.44;5019469;27;105584;-68
2022/02/19 07:12:22;;;;;;;7.50;1.80;;;;;;;5.45;59.06;98832.84;5032105;27;102948;-73
2022/02/19 07:14:52;;;;;;;8.83;1.80;;;;;;;5.56;59.36;98829.69;5033858;27;102713;-73
2022/02/19 07:17:47;;;;;;;8.63;2.13;;;;;;;5.56;59.63;98829.69;5025557;27;104183;-73
2022/02/19 07:20:17;;;;;;;8.57;1.83;;;;;;;5.44;59.54;98843.41;5022235;27;105545;-69
2022/02/19 07:22:45;;;;;;;4.37;1.30;;;;;;;5.60;59.36;98852.22;5025696;27;104374;-68
2022/02/19 07:25:13;;;;;;;7.97;1.83;;;;;;;5.69;58.90;98854.38;5032042;27;102531;-68
2022/02/19 07:27:43;;;;;;;5.57;1.77;;;;;;;5.82;59.15;98858.94;5023617;27;102722;-68
2022/02/19 07:30:14;;;;;;;5.20;1.70;;;;;;;5.95;58.42;98856.53;5028771;27;103346;-68
2022/02/19 07:32:42;;;;;;;6.60;1.80;;;;;;;5.86;58.89;98864.91;5026144;27;103950;-68
2022/02/19 07:35:26;;;;;;;6.20;1.70;;;;;;;5.95;58.82;98867.03;5027327;27;102671;-68
2022/02/19 07:37:54;;;;;;;8.53;2.07;;;;;;;5.75;59.12;98869.81;5023888;27;103804;-68
2022/02/19 07:40:22;;;;;;;9.67;2.10;;;;;;;5.85;58.85;98876.31;5027743;27;103108;-68
2022/02/19 07:42:50;;;;;;;7.77;1.50;;;;;;;6.12;59.33;98888.00;5023506;27;105914;-68
2022/02/19 07:45:44;;;;;;;6.17;1.60;;;;;;;6.31;58.47;98882.69;5011633;27;103016;-73
2022/02/19 07:48:41;;;;;;;5.53;1.73;;;;;;;6.62;57.70;98889.78;4999460;28;102637;-73
2022/02/19 08:00:19;;;;;;;9.20;2.30;;;;;;;6.94;57.10;98902.00;5028609;27;102742;-67
2022/02/19 08:02:54;;;;;;;8.27;2.03;;;;;;;7.31;56.10;98895.56;5024573;27;103697;-71
2022/02/19 08:05:23;;;;;;;12.37;1.70;;;;;;;7.34;56.20;98895.41;5029474;27;105184;-65
2022/02/19 08:07:53;;;;;;;7.90;1.90;;;;;;;7.64;55.76;98908.59;5018260;27;102704;-65
2022/02/19 08:10:22;;;;;;;4.10;1.50;;;;;;;7.51;55.34;98906.69;5026624;27;102675;-69
2022/02/19 08:12:50;;;;;;;6.27;1.73;;;;;;;7.81;54.74;98911.97;5028947;27;103224;-65
2022/02/19 08:15:18;;;;;;;4.10;1.67;;;;;;;8.27;54.46;98910.16;5023907;27;103172;-67
2022/02/19 08:17:46;;;;;;;7.43;1.63;;;;;;;8.24;54.19;98910.28;5019188;27;102621;-67
2022/02/19 08:20:15;;;;;;;8.13;2.63;;;;;;;8.27;54.31;98920.69;5023198;27;102580;-67
2022/02/19 08:22:43;;;;;;;5.73;1.73;;;;;;;7.70;55.71;98917.00;5021034;27;103226;-67
2022/02/19 08:25:13;;;;;;;9.17;2.00;;;;;;;7.21;56.08;98920.69;5022090;27;103256;-67
2022/02/19 08:27:41;;;;;;;7.73;1.97;;;;;;;7.32;56.09;98919.16;5019460;27;103419;-68
2022/02/19 08:30:11;;;;;;;4.27;1.40;;;;;;;7.69;55.62;98922.34;5022626;27;103853;-68
2022/02/19 08:32:39;;;;;;;7.10;1.63;;;;;;;7.86;54.76;98922.22;5023515;27;103271;-72
2022/02/19 08:35:09;;;;;;;9.33;1.93;;;;;;;8.54;53.29;98923.44;5018827;27;103878;-73
2022/02/19 08:37:37;;;;;;;11.20;2.07;;;;;;;8.27;53.75;98928.56;5020144;27;102636;-72
2022/02/19 08:40:09;;;;;;;6.10;2.20;;;;;;;8.52;53.28;98926.16;5022793;27;102570;-68
2022/02/19 08:42:38;;;;;;;5.07;1.83;;;;;;;9.00;52.55;98921.47;5018385;27;104158;-68
2022/02/19 08:45:08;;;;;;;6.67;1.87;;;;;;;9.05;52.78;98928.13;5020072;27;103205;-68
2022/02/19 08:47:42;;;;;;;5.80;1.90;;;;;;;9.43;52.11;98925.69;5018027;27;102656;-73
2022/02/19 08:50:11;;;;;;;10.33;1.83;;;;;;;9.58;51.53;98913.31;5021450;27;102563;-73
2022/02/19 08:52:40;;;;;;;6.30;1.83;;;;;;;9.30;51.59;98919.53;5023700;27;103096;-69
2022/02/19 08:55:09;;;;;;;7.40;1.70;;;;;;;8.73;51.28;98914.31;5021711;27;102989;-72
2022/02/19 08:57:39;;;;;;;6.40;1.50;;;;;;;8.92;51.06;98915.81;5020629;27;103038;-74
2022/02/19 09:00:12;;;;;;;6.87;2.20;;;;;;;9.09;50.94;98928.81;5019016;27;102713;-73
2022/02/19 09:02:41;;;;;;;5.17;1.70;;;;;;;9.37;50.19;98930.53;5015299;27;104397;-73
2022/02/19 09:05:10;;;;;;;8.03;1.60;;;;;;;9.38;50.57;98935.69;5019424;27;103164;-73
2022/02/19 09:07:40;;;;;;;5.70;2.00;;;;;;;9.69;51.20;98943.34;5022339;27;102750;-74
2022/02/19 09:10:10;;;;;;;6.10;2.40;;;;;;;9.53;50.29;98942.66;5016552;27;102623;-74
2022/02/19 09:12:45;;;;;;;4.33;1.60;;;;;;;9.39;50.11;98937.41;5026911;27;103405;-74
2022/02/19 09:15:16;;;;;;;5.80;1.77;;;;;;;9.53;49.64;98933.88;5019975;27;103179;-74
2022/02/19 09:17:44;;;;;;;8.97;1.90;;;;;;;9.25;50.07;98945.34;5019164;27;102546;-75
2022/02/19 09:20:15;;;;;;;5.10;1.67;;;;;;;9.45;49.35;98944.06;5023907;27;102662;-75
2022/02/19 09:22:43;;;;;;;7.40;1.90;;;;;;;9.43;49.93;98945.97;5020186;27;104155;-74
2022/02/19 09:25:12;;;;;;;6.33;1.60;;;;;;;9.39;49.65;98950.59;5005161;27;103196;-75
2022/02/19 09:27:42;;;;;;;7.47;1.87;;;;;;;9.42;49.45;98939.00;5019140;27;102766;-74
2022/02/19 09:30:11;;;;;;;6.93;1.70;;;;;;;9.49;49.64;98943.78;5020331;27;102629;-74
2022/02/19 09:32:40;;;;;;;4.07;1.77;;;;;;;9.25;48.68;98942.69;5023872;27;104013;-74
2022/02/19 09:35:09;;;;;;;5.77;1.77;;;;;;;9.54;48.36;98948.78;5020049;27;103323;-74
2022/02/19 09:37:37;;;;;;;6.57;1.70;;;;;;;9.73;47.88;98944.84;5015461;27;102660;-74
2022/02/19 09:40:08;;;;;;;3.90;1.53;;;;;;;9.55;47.23;98961.00;5022501;27;104222;-75
2022/02/19 09:42:37;;;;;;;4.93;1.63;;;;;;;9.43;47.93;98959.97;5025308;27;103744;-73
2022/02/19 09:45:08;;;;;;;3.93;1.40;;;;;;;9.19;48.12;98954.47;5028231;27;103197;-74
2022/02/19 09:47:38;;;;;;;5.07;1.73;;;;;;;9.30;48.37;98966.97;5013688;27;102876;-74
2022/02/19 09:50:07;;;;;;;6.03;2.00;;;;;;;9.41;47.25;98971.56;5024793;27;103458;-74
2022/02/19 09:52:36;;;;;;;6.07;1.60;;;;;;;9.20;47.81;98965.88;5019541;27;103710;-74
2022/02/19 09:55:04;;;;;;;5.60;1.67;;;;;;;9.24;47.55;98972.63;5016865;27;103280;-74
2022/02/19 09:57:35;;;;;;;4.30;1.70;;;;;;;9.55;47.85;98985.59;5011168;27;102849;-74
2022/02/19 10:00:06;;;;;;;4.70;1.77;;;;;;;9.52;47.99;98993.69;5021370;27;103931;-69
2022/02/19 10:02:42;;;;;;;6.07;1.70;;;;;;;9.06;48.20;98984.34;5017704;27;103764;-69
2022/02/19 10:05:11;;;;;;;5.17;1.70;;;;;;;9.06;47.25;98984.34;5017614;27;103389;-69
2022/02/19 10:07:41;;;;;;;4.60;1.67;;;;;;;9.38;48.18;98992.84;5021803;27;102639;-69
2022/02/19 10:10:24;;;;;;;5.90;1.83;;;;;;;9.62;47.74;98986.91;5019203;27;104138;-69
2022/02/19 10:12:52;;;;;;;4.13;1.60;;;;;;;9.95;47.16;98985.66;5018878;27;102805;-69
2022/02/19 10:15:20;;;;;;;5.10;1.70;;;;;;;9.88;46.52;98986.06;5020122;27;103952;-69
2022/02/19 10:17:53;;;;;;;4.93;1.93;;;;;;;10.02;47.33;98987.78;5019333;27;102577;-69
2022/02/19 10:20:21;;;;;;;3.60;1.40;;;;;;;10.03;46.47;98980.72;5009331;27;104004;-69
2022/02/19 10:22:51;;;;;;;5.77;1.73;;;;;;;9.72;47.15;98995.91;5018493;27;103962;-69
2022/02/19 10:25:24;;;;;;;5.77;1.80;;;;;;;10.18;47.02;98993.81;5020141;27;104813;-69
2022/02/19 10:27:56;;;;;;;6.50;2.00;;;;;;;10.26;46.38;99001.22;5018975;27;102787;-69
2022/02/19 10:30:28;;;;;;;4.27;1.67;;;;;;;10.60;46.49;98998.03;5022616;27;103550;-69
2022/02/19 10:32:58;;;;;;;6.00;1.90;;;;;;;10.44;45.91;98995.53;5023334;27;103622;-69
2022/02/19 10:35:35;;;;;;;4.80;1.50;;;;;;;9.99;46.92;98997.72;5015871;27;103178;-69
2022/02/19 10:38:05;;;;;;;5.67;1.67;;;;;;;9.83;47.42;98996.06;5021576;27;102652;-69
2022/02/19 10:40:39;;;;;;;5.60;1.43;;;;;;;10.39;47.10;98996.81;5020295;27;103623;-69
2022/02/19 10:43:09;;;;;;;6.03;1.80;;;;;;;10.61;46.43;98990.94;5020507;27;104126;-73
2022/02/19 10:45:53;;;;;;;5.30;1.50;;;;;;;10.58;45.54;98986.72;5022681;27;103286;-73
2022/02/19 10:48:28;;;;;;;6.13;1.73;;;;;;;10.47;45.50;98987.41;5020813;27;102627;-73
2022/02/19 10:51:09;;;;;;;4.40;1.67;;;;;;;10.41;44.79;98973.78;5017495;27;103886;-73
2022/02/19 10:53:37;;;;;;;4.77;1.77;;;;;;;10.08;46.09;98983.91;5019649;27;104205;-73
2022/02/19 10:56:13;;;;;;;6.30;2.10;;;;;;;10.83;45.74;98983.25;5024213;27;103258;-73
2022/02/19 10:58:58;;;;;;;5.23;1.83;;;;;;;11.01;44.55;98990.72;5020095;27;102717;-73
2022/02/19 11:01:27;;;;;;;3.43;1.33;;;;;;;11.12;44.32;98989.13;5017907;27;102597;-73
2022/02/19 11:03:58;;;;;;;5.87;1.70;;;;;;;11.29;44.76;98989.66;5017475;27;104031;-73
2022/02/19 11:06:27;;;;;;;4.60;1.50;;;;;;;11.07;44.72;99000.88;5015632;27;103198;-73
2022/02/19 11:08:55;;;;;;;5.50;1.50;;;;;;;10.91;43.18;99005.56;5021085;27;102698;-73
2022/02/19 11:11:26;;;;;;;4.00;1.37;;;;;;;11.40;42.91;98991.53;5020493;27;102859;-72
2022/02/19 11:13:55;;;;;;;5.50;1.80;;;;;;;11.67;43.11;98986.06;5019204;27;103284;-73
2022/02/19 11:16:25;;;;;;;3.53;1.60;;;;;;;11.70;44.11;98991.19;5017753;27;103203;-73
2022/02/19 11:18:54;;;;;;;8.20;1.70;;;;;;;11.85;43.41;98982.97;5016181;27;102700;-72
2022/02/19 11:21:37;;;;;;;6.87;1.73;;;;;;;11.17;42.21;98984.38;5023389;27;102689;-73
2022/02/19 11:24:07;;;;;;;5.17;1.50;;;;;;;11.33;42.25;98985.84;5019756;27;103215;-73
2022/02/19 11:26:36;;;;;;;2.80;1.27;;;;;;;12.15;41.75;98979.88;5023209;27;103202;-73
2022/02/19 11:29:08;;;;;;;2.63;1.20;;;;;;;11.93;40.94;98979.78;5017318;27;102598;-69
2022/02/19 11:31:36;;;;;;;4.27;1.30;;;;;;;11.32;41.65;98980.66;5014811;27;104032;-69
2022/02/19 11:34:05;;;;;;;4.97;1.50;;;;;;;11.28;42.15;98971.25;5025847;27;104211;-69
2022/02/19 11:36:37;;;;;;;5.57;1.57;;;;;;;11.59;41.24;98976.88;5022658;27;103186;-69
2022/02/19 11:39:06;;;;;;;4.13;1.40;;;;;;;12.06;41.35;98969.97;5021835;27;103163;-69
2022/02/19 11:41:37;;;;;;;4.20;1.43;;;;;;;12.13;40.86;98963.22;5019296;27;103819;-69
2022/02/19 11:44:27;;;;;;;3.33;1.50;;;;;;;12.12;38.77;98959.75;5022743;27;103654;-69
2022/02/19 11:46:57;;;;;;;3.87;1.20;;;;;;;12.00;38.41;98958.03;5019179;27;104021;-69
2022/02/19 11:49:27;;;;;;;3.67;1.30;;;;;;;12.08;38.13;98958.28;5019605;27;103016;-69
2022/02/19 11:52:16;;;;;;;4.47;1.30;;;;;;;12.07;38.65;98961.88;5015695;27;104100;-69
2022/02/19 11:55:30;;;;;;;2.33;1.27;;;;;;;12.15;38.77;98959.50;5019654;27;104040;-69
2022/02/19 11:58:03;;;;;;;3.30;0.90;;;;;;;12.14;38.12;98952.53;5018097;27;103189;-70
2022/02/19 12:00:50;;;;;;;3.93;1.20;;;;;;;12.16;38.29;98937.38;5019951;27;102663;-69
2022/02/19 12:03:28;;;;;;;3.97;1.40;;;;;;;12.20;39.56;98941.50;5014897;27;103100;-69